sensor_id;sensor_type;location;lat;lon;timestamp;P1;durP1;ratioP1;P2;durP2;ratioP2
71475;SDS011;59286;59.274;17.974;2023-01-26T00:01:58;9.82;;;7.60;;
71475;SDS011;59286;59.274;17.974;2023-01-26T00:04:23;12.52;;;8.57;;
71475;SDS011;59286;59.274;17.974;2023-01-26T00:06:49;11.95;;;8.52;;
71475;SDS011;59286;59.274;17.974;2023-01-26T00:09:14;11.88;;;8.02;;
71475;SDS011;59286;59.274;17.974;2023-01-26T00:11:40;12.38;;;8.80;;
71475;SDS011;59286;59.274;17.974;2023-01-26T00:14:05;16.08;;;8.98;;
71475;SDS011;59286;59.274;17.974;2023-01-26T00:16:31;9.77;;;7.30;;
71475;SDS011;59286;59.274;17.974;2023-01-26T00:18:56;11.68;;;8.13;;
71475;SDS011;59286;59.274;17.974;2023-01-26T00:21:22;9.00;;;7.53;;
71475;SDS011;59286;59.274;17.974;2023-01-26T00:23:48;11.88;;;8.65;;
71475;SDS011;59286;59.274;17.974;2023-01-26T00:26:15;17.38;;;10.02;;
71475;SDS011;59286;59.274;17.974;2023-01-26T00:28:43;11.07;;;8.23;;
71475;SDS011;59286;59.274;17.974;2023-01-26T00:31:10;13.52;;;9.25;;
71475;SDS011;59286;59.274;17.974;2023-01-26T00:33:37;13.88;;;9.73;;
71475;SDS011;59286;59.274;17.974;2023-01-26T00:36:03;16.00;;;9.70;;
71475;SDS011;59286;59.274;17.974;2023-01-26T00:38:29;16.00;;;10.40;;
71475;SDS011;59286;59.274;17.974;2023-01-26T00:40:55;18.27;;;10.73;;
71475;SDS011;59286;59.274;17.974;2023-01-26T00:43:20;16.98;;;10.68;;
71475;SDS011;59286;59.274;17.974;2023-01-26T00:45:45;17.65;;;10.70;;
71475;SDS011;59286;59.274;17.974;2023-01-26T00:48:11;15.00;;;9.93;;
71475;SDS011;59286;59.274;17.974;2023-01-26T00:50:36;18.45;;;10.70;;
71475;SDS011;59286;59.274;17.974;2023-01-26T00:53:01;14.45;;;9.50;;
71475;SDS011;59286;59.274;17.974;2023-01-26T00:55:28;16.33;;;9.98;;
71475;SDS011;59286;59.274;17.974;2023-01-26T00:58:03;19.00;;;11.18;;
71475;SDS011;59286;59.274;17.974;2023-01-26T01:00:30;20.13;;;11.40;;
71475;SDS011;59286;59.274;17.974;2023-01-26T01:02:56;20.05;;;11.43;;
71475;SDS011;59286;59.274;17.974;2023-01-26T01:05:22;18.70;;;11.07;;
71475;SDS011;59286;59.274;17.974;2023-01-26T01:07:49;19.67;;;11.60;;
71475;SDS011;59286;59.274;17.974;2023-01-26T01:10:14;23.60;;;12.15;;
71475;SDS011;59286;59.274;17.974;2023-01-26T01:12:40;16.70;;;10.00;;
71475;SDS011;59286;59.274;17.974;2023-01-26T01:15:05;15.40;;;10.18;;
71475;SDS011;59286;59.274;17.974;2023-01-26T01:17:32;18.20;;;10.73;;
71475;SDS011;59286;59.274;17.974;2023-01-26T01:19:59;14.50;;;9.18;;
71475;SDS011;59286;59.274;17.974;2023-01-26T01:22:24;11.50;;;7.80;;
71475;SDS011;59286;59.274;17.974;2023-01-26T01:24:49;16.35;;;10.50;;
71475;SDS011;59286;59.274;17.974;2023-01-26T01:27:15;16.50;;;10.13;;
71475;SDS011;59286;59.274;17.974;2023-01-26T01:29:40;16.63;;;10.20;;
71475;SDS011;59286;59.274;17.974;2023-01-26T01:32:05;14.52;;;9.93;;
71475;SDS011;59286;59.274;17.974;2023-01-26T01:34:31;16.00;;;10.18;;
71475;SDS011;59286;59.274;17.974;2023-01-26T01:36:56;13.13;;;9.13;;
71475;SDS011;59286;59.274;17.974;2023-01-26T01:39:21;9.35;;;7.40;;
71475;SDS011;59286;59.274;17.974;2023-01-26T01:41:47;12.65;;;8.88;;
71475;SDS011;59286;59.274;17.974;2023-01-26T01:52:01;13.10;;;9.02;;
71475;SDS011;59286;59.274;17.974;2023-01-26T01:54:42;11.25;;;8.43;;
71475;SDS011;59286;59.274;17.974;2023-01-26T01:57:14;13.25;;;8.48;;
71475;SDS011;59286;59.274;17.974;2023-01-26T02:00:05;14.00;;;8.85;;
71475;SDS011;59286;59.274;17.974;2023-01-26T02:02:33;13.07;;;8.50;;
71475;SDS011;59286;59.274;17.974;2023-01-26T02:05:02;14.32;;;9.20;;
71475;SDS011;59286;59.274;17.974;2023-01-26T02:07:37;19.83;;;9.82;;
71475;SDS011;59286;59.274;17.974;2023-01-26T02:10:03;13.73;;;9.07;;
71475;SDS011;59286;59.274;17.974;2023-01-26T02:12:45;14.52;;;9.10;;
71475;SDS011;59286;59.274;17.974;2023-01-26T02:15:12;14.20;;;9.13;;
71475;SDS011;59286;59.274;17.974;2023-01-26T02:17:38;17.65;;;10.25;;
71475;SDS011;59286;59.274;17.974;2023-01-26T02:20:13;13.18;;;9.85;;
71475;SDS011;59286;59.274;17.974;2023-01-26T02:22:48;16.63;;;10.23;;
71475;SDS011;59286;59.274;17.974;2023-01-26T02:25:45;21.58;;;12.07;;
71475;SDS011;59286;59.274;17.974;2023-01-26T02:28:13;24.50;;;12.18;;
71475;SDS011;59286;59.274;17.974;2023-01-26T02:30:39;22.10;;;12.02;;
71475;SDS011;59286;59.274;17.974;2023-01-26T02:33:04;25.13;;;11.20;;
71475;SDS011;59286;59.274;17.974;2023-01-26T02:35:30;22.23;;;12.20;;
71475;SDS011;59286;59.274;17.974;2023-01-26T02:37:55;23.10;;;12.20;;
71475;SDS011;59286;59.274;17.974;2023-01-26T02:40:42;21.17;;;11.07;;
71475;SDS011;59286;59.274;17.974;2023-01-26T02:43:12;19.75;;;9.80;;
71475;SDS011;59286;59.274;17.974;2023-01-26T02:45:39;22.55;;;11.68;;
71475;SDS011;59286;59.274;17.974;2023-01-26T02:48:05;18.73;;;10.05;;
71475;SDS011;59286;59.274;17.974;2023-01-26T02:50:32;31.45;;;12.82;;
71475;SDS011;59286;59.274;17.974;2023-01-26T02:52:58;31.77;;;12.88;;
71475;SDS011;59286;59.274;17.974;2023-01-26T02:55:24;21.10;;;11.10;;
71475;SDS011;59286;59.274;17.974;2023-01-26T02:58:00;35.38;;;13.88;;
71475;SDS011;59286;59.274;17.974;2023-01-26T03:00:33;16.92;;;9.30;;
71475;SDS011;59286;59.274;17.974;2023-01-26T03:03:14;29.40;;;11.77;;
71475;SDS011;59286;59.274;17.974;2023-01-26T03:05:43;21.13;;;10.38;;
71475;SDS011;59286;59.274;17.974;2023-01-26T03:08:08;40.92;;;10.40;;
71475;SDS011;59286;59.274;17.974;2023-01-26T03:10:34;58.97;;;10.65;;
71475;SDS011;59286;59.274;17.974;2023-01-26T03:13:00;51.28;;;15.13;;
71475;SDS011;59286;59.274;17.974;2023-01-26T03:15:25;26.98;;;10.75;;
71475;SDS011;59286;59.274;17.974;2023-01-26T03:18:10;49.88;;;13.80;;
71475;SDS011;59286;59.274;17.974;2023-01-26T03:20:58;21.02;;;9.43;;
71475;SDS011;59286;59.274;17.974;2023-01-26T03:23:43;35.17;;;9.38;;
71475;SDS011;59286;59.274;17.974;2023-01-26T03:26:27;42.25;;;10.75;;
71475;SDS011;59286;59.274;17.974;2023-01-26T03:29:11;67.25;;;15.07;;
71475;SDS011;59286;59.274;17.974;2023-01-26T03:31:37;62.22;;;14.05;;
71475;SDS011;59286;59.274;17.974;2023-01-26T03:34:02;18.17;;;8.45;;
71475;SDS011;59286;59.274;17.974;2023-01-26T03:36:27;81.07;;;16.67;;
71475;SDS011;59286;59.274;17.974;2023-01-26T03:38:53;67.03;;;13.38;;
71475;SDS011;59286;59.274;17.974;2023-01-26T03:41:18;56.05;;;13.85;;
71475;SDS011;59286;59.274;17.974;2023-01-26T03:44:02;50.15;;;9.93;;
71475;SDS011;59286;59.274;17.974;2023-01-26T03:46:46;138.57;;;17.15;;
71475;SDS011;59286;59.274;17.974;2023-01-26T03:49:30;129.02;;;17.40;;
71475;SDS011;59286;59.274;17.974;2023-01-26T03:52:14;235.82;;;22.05;;
71475;SDS011;59286;59.274;17.974;2023-01-26T03:54:58;292.35;;;21.55;;
71475;SDS011;59286;59.274;17.974;2023-01-26T03:57:41;299.30;;;20.90;;
71475;SDS011;59286;59.274;17.974;2023-01-26T04:00:07;218.40;;;17.63;;
71475;SDS011;59286;59.274;17.974;2023-01-26T04:02:33;285.50;;;21.05;;
71475;SDS011;59286;59.274;17.974;2023-01-26T04:05:17;292.20;;;17.75;;
71475;SDS011;59286;59.274;17.974;2023-01-26T04:08:01;264.08;;;19.02;;
71475;SDS011;59286;59.274;17.974;2023-01-26T04:10:46;326.00;;;22.98;;
71475;SDS011;59286;59.274;17.974;2023-01-26T04:13:15;240.13;;;12.52;;
71475;SDS011;59286;59.274;17.974;2023-01-26T04:15:58;232.23;;;10.85;;
71475;SDS011;59286;59.274;17.974;2023-01-26T04:18:42;187.02;;;15.75;;
71475;SDS011;59286;59.274;17.974;2023-01-26T04:21:26;342.38;;;20.95;;
71475;SDS011;59286;59.274;17.974;2023-01-26T04:23:53;213.30;;;18.73;;
71475;SDS011;59286;59.274;17.974;2023-01-26T04:26:26;297.33;;;19.67;;
71475;SDS011;59286;59.274;17.974;2023-01-26T04:29:01;101.80;;;9.73;;
71475;SDS011;59286;59.274;17.974;2023-01-26T04:31:27;96.75;;;10.50;;
71475;SDS011;59286;59.274;17.974;2023-01-26T04:33:52;269.35;;;18.90;;
71475;SDS011;59286;59.274;17.974;2023-01-26T04:36:18;140.23;;;10.95;;
71475;SDS011;59286;59.274;17.974;2023-01-26T04:38:43;172.05;;;12.23;;
71475;SDS011;59286;59.274;17.974;2023-01-26T04:41:09;128.15;;;16.33;;
71475;SDS011;59286;59.274;17.974;2023-01-26T04:43:34;137.23;;;16.83;;
71475;SDS011;59286;59.274;17.974;2023-01-26T04:46:04;168.70;;;20.35;;
71475;SDS011;59286;59.274;17.974;2023-01-26T04:48:31;215.73;;;17.48;;
71475;SDS011;59286;59.274;17.974;2023-01-26T04:50:57;50.55;;;11.38;;
71475;SDS011;59286;59.274;17.974;2023-01-26T04:53:24;309.13;;;16.02;;
71475;SDS011;59286;59.274;17.974;2023-01-26T04:55:50;75.80;;;14.18;;
71475;SDS011;59286;59.274;17.974;2023-01-26T04:58:16;172.90;;;15.18;;
71475;SDS011;59286;59.274;17.974;2023-01-26T05:00:41;163.55;;;13.18;;
71475;SDS011;59286;59.274;17.974;2023-01-26T05:03:07;81.70;;;15.75;;
71475;SDS011;59286;59.274;17.974;2023-01-26T05:05:35;136.77;;;18.10;;
71475;SDS011;59286;59.274;17.974;2023-01-26T05:08:02;142.98;;;18.58;;
71475;SDS011;59286;59.274;17.974;2023-01-26T05:10:28;72.75;;;11.88;;
71475;SDS011;59286;59.274;17.974;2023-01-26T05:12:53;69.97;;;14.18;;
71475;SDS011;59286;59.274;17.974;2023-01-26T05:15:19;159.43;;;15.57;;
71475;SDS011;59286;59.274;17.974;2023-01-26T05:17:44;142.30;;;14.70;;
71475;SDS011;59286;59.274;17.974;2023-01-26T05:20:10;156.43;;;14.95;;
71475;SDS011;59286;59.274;17.974;2023-01-26T05:22:35;141.68;;;11.30;;
71475;SDS011;59286;59.274;17.974;2023-01-26T05:25:00;162.77;;;17.60;;
71475;SDS011;59286;59.274;17.974;2023-01-26T05:27:26;179.60;;;13.75;;
71475;SDS011;59286;59.274;17.974;2023-01-26T05:29:51;119.18;;;13.60;;
71475;SDS011;59286;59.274;17.974;2023-01-26T05:32:17;103.53;;;12.32;;
71475;SDS011;59286;59.274;17.974;2023-01-26T05:34:43;203.35;;;18.52;;
71475;SDS011;59286;59.274;17.974;2023-01-26T05:37:08;122.47;;;14.93;;
71475;SDS011;59286;59.274;17.974;2023-01-26T05:39:33;189.43;;;15.43;;
71475;SDS011;59286;59.274;17.974;2023-01-26T05:41:59;129.80;;;16.48;;
71475;SDS011;59286;59.274;17.974;2023-01-26T05:44:24;193.93;;;14.93;;
71475;SDS011;59286;59.274;17.974;2023-01-26T05:46:50;110.50;;;12.57;;
71475;SDS011;59286;59.274;17.974;2023-01-26T05:49:16;93.10;;;11.13;;
71475;SDS011;59286;59.274;17.974;2023-01-26T05:51:41;96.35;;;13.68;;
71475;SDS011;59286;59.274;17.974;2023-01-26T05:54:06;109.32;;;13.10;;
71475;SDS011;59286;59.274;17.974;2023-01-26T05:56:32;45.80;;;11.40;;
71475;SDS011;59286;59.274;17.974;2023-01-26T05:58:57;100.50;;;15.68;;
71475;SDS011;59286;59.274;17.974;2023-01-26T06:01:22;62.20;;;13.52;;
71475;SDS011;59286;59.274;17.974;2023-01-26T06:03:48;44.63;;;12.18;;
71475;SDS011;59286;59.274;17.974;2023-01-26T06:06:13;99.70;;;16.80;;
71475;SDS011;59286;59.274;17.974;2023-01-26T06:08:38;48.90;;;13.38;;
71475;SDS011;59286;59.274;17.974;2023-01-26T06:11:04;38.92;;;12.13;;
71475;SDS011;59286;59.274;17.974;2023-01-26T06:13:29;26.08;;;11.45;;
71475;SDS011;59286;59.274;17.974;2023-01-26T06:15:54;43.13;;;13.73;;
71475;SDS011;59286;59.274;17.974;2023-01-26T06:18:20;40.90;;;12.98;;
71475;SDS011;59286;59.274;17.974;2023-01-26T06:20:45;20.17;;;10.13;;
71475;SDS011;59286;59.274;17.974;2023-01-26T06:23:10;23.25;;;10.38;;
71475;SDS011;59286;59.274;17.974;2023-01-26T06:25:37;27.63;;;11.90;;
71475;SDS011;59286;59.274;17.974;2023-01-26T06:28:05;31.95;;;12.75;;
71475;SDS011;59286;59.274;17.974;2023-01-26T06:30:31;22.63;;;9.93;;
71475;SDS011;59286;59.274;17.974;2023-01-26T06:32:58;42.65;;;12.68;;
71475;SDS011;59286;59.274;17.974;2023-01-26T06:35:23;36.75;;;12.20;;
71475;SDS011;59286;59.274;17.974;2023-01-26T06:37:50;21.15;;;10.10;;
71475;SDS011;59286;59.274;17.974;2023-01-26T06:40:16;26.75;;;10.32;;
71475;SDS011;59286;59.274;17.974;2023-01-26T06:42:46;47.17;;;12.63;;
71475;SDS011;59286;59.274;17.974;2023-01-26T06:45:15;30.90;;;11.20;;
71475;SDS011;59286;59.274;17.974;2023-01-26T06:47:44;39.65;;;11.93;;
71475;SDS011;59286;59.274;17.974;2023-01-26T06:50:11;25.77;;;11.32;;
71475;SDS011;59286;59.274;17.974;2023-01-26T06:52:36;18.00;;;9.50;;
71475;SDS011;59286;59.274;17.974;2023-01-26T06:55:08;30.65;;;11.70;;
71475;SDS011;59286;59.274;17.974;2023-01-26T06:57:41;37.38;;;13.00;;
71475;SDS011;59286;59.274;17.974;2023-01-26T07:00:07;31.88;;;12.02;;
71475;SDS011;59286;59.274;17.974;2023-01-26T07:02:34;36.72;;;12.27;;
71475;SDS011;59286;59.274;17.974;2023-01-26T07:04:59;43.83;;;12.18;;
71475;SDS011;59286;59.274;17.974;2023-01-26T07:07:24;39.00;;;15.02;;
71475;SDS011;59286;59.274;17.974;2023-01-26T07:09:50;20.60;;;9.95;;
71475;SDS011;59286;59.274;17.974;2023-01-26T07:12:15;43.75;;;13.00;;
71475;SDS011;59286;59.274;17.974;2023-01-26T07:14:40;21.88;;;9.30;;
71475;SDS011;59286;59.274;17.974;2023-01-26T07:17:06;27.35;;;10.65;;
71475;SDS011;59286;59.274;17.974;2023-01-26T07:19:31;17.30;;;8.43;;
71475;SDS011;59286;59.274;17.974;2023-01-26T07:21:57;25.88;;;10.68;;
71475;SDS011;59286;59.274;17.974;2023-01-26T07:24:23;17.63;;;8.50;;
71475;SDS011;59286;59.274;17.974;2023-01-26T07:26:49;19.48;;;9.77;;
71475;SDS011;59286;59.274;17.974;2023-01-26T07:29:14;28.85;;;11.30;;
71475;SDS011;59286;59.274;17.974;2023-01-26T07:31:40;32.55;;;11.63;;
71475;SDS011;59286;59.274;17.974;2023-01-26T07:34:08;31.50;;;11.48;;
71475;SDS011;59286;59.274;17.974;2023-01-26T07:36:33;15.43;;;8.88;;
71475;SDS011;59286;59.274;17.974;2023-01-26T07:38:59;15.63;;;8.82;;
71475;SDS011;59286;59.274;17.974;2023-01-26T07:41:24;18.80;;;8.93;;
71475;SDS011;59286;59.274;17.974;2023-01-26T07:43:49;13.80;;;7.20;;
71475;SDS011;59286;59.274;17.974;2023-01-26T07:46:15;9.70;;;6.35;;
71475;SDS011;59286;59.274;17.974;2023-01-26T07:48:41;12.55;;;6.10;;
71475;SDS011;59286;59.274;17.974;2023-01-26T07:51:06;10.90;;;5.35;;
71475;SDS011;59286;59.274;17.974;2023-01-26T07:53:33;9.73;;;5.20;;
71475;SDS011;59286;59.274;17.974;2023-01-26T07:56:10;10.07;;;5.03;;
71475;SDS011;59286;59.274;17.974;2023-01-26T07:58:37;9.43;;;3.55;;
71475;SDS011;59286;59.274;17.974;2023-01-26T08:01:04;6.25;;;3.30;;
71475;SDS011;59286;59.274;17.974;2023-01-26T08:03:37;4.13;;;2.88;;
71475;SDS011;59286;59.274;17.974;2023-01-26T08:06:03;6.68;;;2.60;;
71475;SDS011;59286;59.274;17.974;2023-01-26T08:08:29;2.28;;;1.88;;
71475;SDS011;59286;59.274;17.974;2023-01-26T08:10:55;2.83;;;2.13;;
71475;SDS011;59286;59.274;17.974;2023-01-26T08:13:21;3.42;;;1.75;;
71475;SDS011;59286;59.274;17.974;2023-01-26T08:15:47;3.33;;;1.23;;
71475;SDS011;59286;59.274;17.974;2023-01-26T08:18:12;2.67;;;1.20;;
71475;SDS011;59286;59.274;17.974;2023-01-26T08:20:37;4.07;;;1.10;;
71475;SDS011;59286;59.274;17.974;2023-01-26T08:23:02;1.90;;;0.85;;
71475;SDS011;59286;59.274;17.974;2023-01-26T08:25:28;2.03;;;1.27;;
71475;SDS011;59286;59.274;17.974;2023-01-26T08:27:53;2.83;;;0.85;;
71475;SDS011;59286;59.274;17.974;2023-01-26T08:30:19;2.47;;;0.70;;
71475;SDS011;59286;59.274;17.974;2023-01-26T08:32:45;2.00;;;0.80;;
71475;SDS011;59286;59.274;17.974;2023-01-26T08:35:10;1.80;;;0.80;;
71475;SDS011;59286;59.274;17.974;2023-01-26T08:37:35;3.15;;;0.80;;
71475;SDS011;59286;59.274;17.974;2023-01-26T08:40:01;2.53;;;0.80;;
71475;SDS011;59286;59.274;17.974;2023-01-26T08:42:26;2.40;;;0.70;;
71475;SDS011;59286;59.274;17.974;2023-01-26T08:44:51;1.20;;;0.60;;
71475;SDS011;59286;59.274;17.974;2023-01-26T08:47:17;1.63;;;0.55;;
71475;SDS011;59286;59.274;17.974;2023-01-26T08:49:42;1.40;;;0.70;;
71475;SDS011;59286;59.274;17.974;2023-01-26T08:52:07;1.13;;;0.40;;
71475;SDS011;59286;59.274;17.974;2023-01-26T08:54:33;3.38;;;0.50;;
71475;SDS011;59286;59.274;17.974;2023-01-26T08:56:58;1.75;;;0.70;;
71475;SDS011;59286;59.274;17.974;2023-01-26T08:59:23;3.67;;;0.70;;
71475;SDS011;59286;59.274;17.974;2023-01-26T09:01:49;0.93;;;0.40;;
71475;SDS011;59286;59.274;17.974;2023-01-26T09:04:14;0.82;;;0.45;;
71475;SDS011;59286;59.274;17.974;2023-01-26T09:06:39;2.17;;;0.43;;
71475;SDS011;59286;59.274;17.974;2023-01-26T09:09:05;1.70;;;0.52;;
71475;SDS011;59286;59.274;17.974;2023-01-26T09:11:33;2.13;;;0.52;;
71475;SDS011;59286;59.274;17.974;2023-01-26T09:13:59;1.15;;;0.50;;
71475;SDS011;59286;59.274;17.974;2023-01-26T09:16:24;0.40;;;0.30;;
71475;SDS011;59286;59.274;17.974;2023-01-26T09:18:50;0.43;;;0.30;;
71475;SDS011;59286;59.274;17.974;2023-01-26T09:21:18;3.20;;;0.40;;
71475;SDS011;59286;59.274;17.974;2023-01-26T09:23:44;1.45;;;0.40;;
71475;SDS011;59286;59.274;17.974;2023-01-26T09:26:09;0.95;;;0.35;;
71475;SDS011;59286;59.274;17.974;2023-01-26T09:28:34;0.93;;;0.30;;
71475;SDS011;59286;59.274;17.974;2023-01-26T09:31:03;0.57;;;0.30;;
71475;SDS011;59286;59.274;17.974;2023-01-26T09:33:30;0.73;;;0.30;;
71475;SDS011;59286;59.274;17.974;2023-01-26T09:35:55;0.95;;;0.30;;
71475;SDS011;59286;59.274;17.974;2023-01-26T09:38:20;0.73;;;0.40;;
71475;SDS011;59286;59.274;17.974;2023-01-26T09:41:10;1.42;;;0.28;;
71475;SDS011;59286;59.274;17.974;2023-01-26T09:44:03;1.50;;;0.30;;
71475;SDS011;59286;59.274;17.974;2023-01-26T09:49:25;0.98;;;0.40;;
71475;SDS011;59286;59.274;17.974;2023-01-26T09:52:25;1.05;;;0.30;;
71475;SDS011;59286;59.274;17.974;2023-01-26T09:54:58;0.70;;;0.30;;
71475;SDS011;59286;59.274;17.974;2023-01-26T09:57:28;1.63;;;0.38;;
71475;SDS011;59286;59.274;17.974;2023-01-26T09:59:57;0.20;;;0.20;;
71475;SDS011;59286;59.274;17.974;2023-01-26T10:05:24;2.75;;;0.30;;
71475;SDS011;59286;59.274;17.974;2023-01-26T10:07:56;0.70;;;0.30;;
71475;SDS011;59286;59.274;17.974;2023-01-26T10:10:26;2.90;;;0.32;;
71475;SDS011;59286;59.274;17.974;2023-01-26T10:12:56;0.60;;;0.40;;
71475;SDS011;59286;59.274;17.974;2023-01-26T10:15:27;0.68;;;0.40;;
71475;SDS011;59286;59.274;17.974;2023-01-26T10:17:55;2.25;;;0.40;;
71475;SDS011;59286;59.274;17.974;2023-01-26T10:23:08;1.10;;;0.30;;
71475;SDS011;59286;59.274;17.974;2023-01-26T10:25:40;2.22;;;0.55;;
71475;SDS011;59286;59.274;17.974;2023-01-26T10:28:12;1.13;;;0.38;;
71475;SDS011;59286;59.274;17.974;2023-01-26T10:30:39;2.20;;;0.30;;
71475;SDS011;59286;59.274;17.974;2023-01-26T10:33:11;1.20;;;0.40;;
71475;SDS011;59286;59.274;17.974;2023-01-26T10:35:40;0.60;;;0.40;;
71475;SDS011;59286;59.274;17.974;2023-01-26T10:40:50;0.80;;;0.20;;
71475;SDS011;59286;59.274;17.974;2023-01-26T10:43:16;3.35;;;0.40;;
71475;SDS011;59286;59.274;17.974;2023-01-26T10:45:46;3.40;;;0.30;;
71475;SDS011;59286;59.274;17.974;2023-01-26T10:48:18;2.35;;;0.60;;
71475;SDS011;59286;59.274;17.974;2023-01-26T10:50:46;2.25;;;0.50;;
71475;SDS011;59286;59.274;17.974;2023-01-26T10:53:22;0.55;;;0.30;;
71475;SDS011;59286;59.274;17.974;2023-01-26T10:56:02;0.63;;;0.30;;
71475;SDS011;59286;59.274;17.974;2023-01-26T10:58:45;1.55;;;0.30;;
71475;SDS011;59286;59.274;17.974;2023-01-26T11:01:18;4.78;;;0.52;;
71475;SDS011;59286;59.274;17.974;2023-01-26T11:04:09;0.98;;;0.40;;
71475;SDS011;59286;59.274;17.974;2023-01-26T11:06:37;1.75;;;0.30;;
71475;SDS011;59286;59.274;17.974;2023-01-26T11:11:59;1.63;;;0.40;;
71475;SDS011;59286;59.274;17.974;2023-01-26T11:14:27;2.70;;;0.50;;
71475;SDS011;59286;59.274;17.974;2023-01-26T11:17:16;3.45;;;0.80;;
71475;SDS011;59286;59.274;17.974;2023-01-26T11:22:36;2.15;;;0.40;;
71475;SDS011;59286;59.274;17.974;2023-01-26T11:25:14;2.40;;;0.50;;
71475;SDS011;59286;59.274;17.974;2023-01-26T11:30:32;3.05;;;0.28;;
71475;SDS011;59286;59.274;17.974;2023-01-26T11:33:11;1.27;;;0.50;;
71475;SDS011;59286;59.274;17.974;2023-01-26T11:36:02;3.45;;;0.30;;
71475;SDS011;59286;59.274;17.974;2023-01-26T11:49:38;2.70;;;0.40;;
71475;SDS011;59286;59.274;17.974;2023-01-26T11:52:34;2.53;;;0.50;;
71475;SDS011;59286;59.274;17.974;2023-01-26T12:00:20;3.55;;;0.38;;
71475;SDS011;59286;59.274;17.974;2023-01-26T12:02:55;1.30;;;0.30;;
71475;SDS011;59286;59.274;17.974;2023-01-26T12:07:54;4.35;;;1.20;;
71475;SDS011;59286;59.274;17.974;2023-01-26T12:10:35;1.60;;;0.45;;
71475;SDS011;59286;59.274;17.974;2023-01-26T12:13:17;1.40;;;0.50;;
71475;SDS011;59286;59.274;17.974;2023-01-26T12:15:52;2.45;;;0.55;;
71475;SDS011;59286;59.274;17.974;2023-01-26T12:18:34;6.72;;;0.70;;
71475;SDS011;59286;59.274;17.974;2023-01-26T12:21:11;1.80;;;0.50;;
71475;SDS011;59286;59.274;17.974;2023-01-26T12:23:41;4.82;;;0.60;;
71475;SDS011;59286;59.274;17.974;2023-01-26T12:26:14;1.80;;;0.70;;
71475;SDS011;59286;59.274;17.974;2023-01-26T12:34:34;4.38;;;0.52;;
71475;SDS011;59286;59.274;17.974;2023-01-26T12:39:53;2.22;;;0.60;;
71475;SDS011;59286;59.274;17.974;2023-01-26T12:42:26;2.78;;;0.57;;
71475;SDS011;59286;59.274;17.974;2023-01-26T12:45:03;3.60;;;0.60;;
71475;SDS011;59286;59.274;17.974;2023-01-26T12:47:43;1.98;;;0.50;;
71475;SDS011;59286;59.274;17.974;2023-01-26T12:55:27;2.10;;;0.60;;
71475;SDS011;59286;59.274;17.974;2023-01-26T12:58:01;2.90;;;0.63;;
71475;SDS011;59286;59.274;17.974;2023-01-26T13:00:30;1.83;;;0.47;;
71475;SDS011;59286;59.274;17.974;2023-01-26T13:03:03;3.72;;;0.70;;
71475;SDS011;59286;59.274;17.974;2023-01-26T13:05:52;2.95;;;0.50;;
71475;SDS011;59286;59.274;17.974;2023-01-26T13:10:56;3.08;;;0.50;;
71475;SDS011;59286;59.274;17.974;2023-01-26T13:18:50;2.53;;;0.60;;
71475;SDS011;59286;59.274;17.974;2023-01-26T13:23:51;6.03;;;0.70;;
71475;SDS011;59286;59.274;17.974;2023-01-26T13:26:17;1.42;;;0.50;;
71475;SDS011;59286;59.274;17.974;2023-01-26T13:31:49;4.70;;;0.50;;
71475;SDS011;59286;59.274;17.974;2023-01-26T13:34:15;3.53;;;0.70;;
71475;SDS011;59286;59.274;17.974;2023-01-26T13:36:46;2.90;;;0.60;;
71475;SDS011;59286;59.274;17.974;2023-01-26T13:39:18;3.70;;;0.60;;
71475;SDS011;59286;59.274;17.974;2023-01-26T13:41:53;6.88;;;0.82;;
71475;SDS011;59286;59.274;17.974;2023-01-26T13:44:20;4.97;;;0.60;;
71475;SDS011;59286;59.274;17.974;2023-01-26T13:47:10;4.68;;;0.63;;
71475;SDS011;59286;59.274;17.974;2023-01-26T13:49:43;3.10;;;0.65;;
71475;SDS011;59286;59.274;17.974;2023-01-26T13:52:26;4.55;;;0.50;;
71475;SDS011;59286;59.274;17.974;2023-01-26T13:54:53;3.72;;;0.50;;
71475;SDS011;59286;59.274;17.974;2023-01-26T13:57:22;5.15;;;0.85;;
71475;SDS011;59286;59.274;17.974;2023-01-26T13:59:54;2.53;;;0.70;;
71475;SDS011;59286;59.274;17.974;2023-01-26T14:02:28;6.32;;;0.57;;
71475;SDS011;59286;59.274;17.974;2023-01-26T14:04:58;0.70;;;0.35;;
71475;SDS011;59286;59.274;17.974;2023-01-26T14:07:34;4.97;;;0.57;;
71475;SDS011;59286;59.274;17.974;2023-01-26T14:10:02;7.00;;;0.77;;
71475;SDS011;59286;59.274;17.974;2023-01-26T14:12:30;2.65;;;1.10;;
71475;SDS011;59286;59.274;17.974;2023-01-26T14:14:59;2.53;;;0.68;;
71475;SDS011;59286;59.274;17.974;2023-01-26T14:17:32;3.58;;;0.75;;
71475;SDS011;59286;59.274;17.974;2023-01-26T14:20:00;1.42;;;0.38;;
71475;SDS011;59286;59.274;17.974;2023-01-26T14:22:40;1.52;;;0.55;;
71475;SDS011;59286;59.274;17.974;2023-01-26T14:25:07;3.47;;;0.57;;
71475;SDS011;59286;59.274;17.974;2023-01-26T14:27:35;2.95;;;0.90;;
71475;SDS011;59286;59.274;17.974;2023-01-26T14:30:19;3.80;;;0.75;;
71475;SDS011;59286;59.274;17.974;2023-01-26T14:33:14;2.90;;;0.55;;
71475;SDS011;59286;59.274;17.974;2023-01-26T14:35:42;4.22;;;0.70;;
71475;SDS011;59286;59.274;17.974;2023-01-26T14:38:18;1.75;;;0.50;;
71475;SDS011;59286;59.274;17.974;2023-01-26T14:40:48;3.05;;;0.70;;
71475;SDS011;59286;59.274;17.974;2023-01-26T14:43:15;1.52;;;0.70;;
71475;SDS011;59286;59.274;17.974;2023-01-26T14:45:49;3.25;;;0.52;;
71475;SDS011;59286;59.274;17.974;2023-01-26T14:48:36;4.03;;;0.82;;
71475;SDS011;59286;59.274;17.974;2023-01-26T14:51:12;3.58;;;0.65;;
71475;SDS011;59286;59.274;17.974;2023-01-26T14:53:54;6.05;;;1.13;;
71475;SDS011;59286;59.274;17.974;2023-01-26T14:56:25;1.20;;;0.60;;
71475;SDS011;59286;59.274;17.974;2023-01-26T14:58:56;3.65;;;0.70;;
71475;SDS011;59286;59.274;17.974;2023-01-26T15:01:23;2.15;;;0.63;;
71475;SDS011;59286;59.274;17.974;2023-01-26T15:03:55;5.55;;;0.90;;
71475;SDS011;59286;59.274;17.974;2023-01-26T15:06:25;3.25;;;0.88;;
71475;SDS011;59286;59.274;17.974;2023-01-26T15:08:57;4.90;;;0.80;;
71475;SDS011;59286;59.274;17.974;2023-01-26T15:11:33;1.92;;;0.60;;
71475;SDS011;59286;59.274;17.974;2023-01-26T15:14:33;1.67;;;0.68;;
71475;SDS011;59286;59.274;17.974;2023-01-26T15:16:59;2.60;;;0.70;;
71475;SDS011;59286;59.274;17.974;2023-01-26T15:19:25;2.17;;;0.73;;
71475;SDS011;59286;59.274;17.974;2023-01-26T15:21:55;5.05;;;1.10;;
71475;SDS011;59286;59.274;17.974;2023-01-26T15:24:21;6.22;;;1.20;;
71475;SDS011;59286;59.274;17.974;2023-01-26T15:26:46;1.95;;;0.80;;
71475;SDS011;59286;59.274;17.974;2023-01-26T15:29:28;5.80;;;0.88;;
71475;SDS011;59286;59.274;17.974;2023-01-26T15:31:56;5.15;;;0.80;;
71475;SDS011;59286;59.274;17.974;2023-01-26T15:34:27;4.47;;;1.02;;
71475;SDS011;59286;59.274;17.974;2023-01-26T15:36:57;4.00;;;1.00;;
71475;SDS011;59286;59.274;17.974;2023-01-26T15:39:24;5.57;;;1.23;;
71475;SDS011;59286;59.274;17.974;2023-01-26T15:42:06;3.75;;;1.00;;
71475;SDS011;59286;59.274;17.974;2023-01-26T15:44:37;3.22;;;0.93;;
71475;SDS011;59286;59.274;17.974;2023-01-26T15:47:03;6.38;;;1.15;;
71475;SDS011;59286;59.274;17.974;2023-01-26T15:49:28;2.97;;;0.90;;
71475;SDS011;59286;59.274;17.974;2023-01-26T15:51:53;4.82;;;1.02;;